Terminal Aerodrome Forecast
Issued by NWS

Home | Current Version | Previous Version | Text Only | Print | Product List | Glossary Off
Versions: 1 2 3 4 5 6 7 8 9 10 11 12 13 14 15 16 17 18 19 20 21 22 23

000
FTUS43 KGRB 251542 AAB
TAFATW
TAF AMD
KATW 251542Z 2516/2612 16012G20KT P6SM VCSH BKN013
      TEMPO 2516/2517 4SM SHRA BKN006
     FM251700 23018G32KT P6SM BKN028
     FM260000 22012G23KT P6SM VCSH BKN040
      TEMPO 2600/2603 3SM -SHRA BKN028
     FM260300 21008KT 5SM HZ SCT040 BKN100
      TEMPO 2608/2612 3SM BR=

USA.gov is the U.S. government's official web portal to all federal, state and local government web resources and services.